createdAt,value
2019-03-10T00:07:06.980Z,3.70
2019-03-10T00:31:43.013Z,3.70
2019-03-10T00:37:42.940Z,3.80
2019-03-10T00:49:46.333Z,4.10
2019-03-10T00:54:53.966Z,4.30
2019-03-10T01:00:00.877Z,4.50
2019-03-10T01:05:09.428Z,4.60
2019-03-10T01:16:41.532Z,4.80
2019-03-10T01:21:49.985Z,4.80
2019-03-10T01:26:58.930Z,4.90
2019-03-10T01:33:01.221Z,4.90
2019-03-10T01:38:43.930Z,4.90
2019-03-10T01:55:23.153Z,5.00
2019-03-10T02:00:37.266Z,4.80
2019-03-10T02:11:42.924Z,4.90
2019-03-10T02:22:48.747Z,4.90
2019-03-10T02:33:32.510Z,5.00
2019-03-10T02:38:42.454Z,5.00
2019-03-10T02:43:57.079Z,5.10
2019-03-10T02:49:11.802Z,5.10
2019-03-10T02:54:29.129Z,5.10
2019-03-10T03:00:09.427Z,5.10
2019-03-10T03:05:23.289Z,5.10
2019-03-10T03:10:49.121Z,5.10
2019-03-10T03:16:25.934Z,5.00
2019-03-10T03:34:20.358Z,5.00
2019-03-10T03:39:53.012Z,5.10
2019-03-10T03:45:06.729Z,5.10
2019-03-10T03:50:16.469Z,5.00
2019-03-10T03:55:27.901Z,5.10
2019-03-10T04:31:02.729Z,5.20
2019-03-10T05:33:59.102Z,5.50
2019-03-10T05:50:37.919Z,5.40
2019-03-10T05:55:44.712Z,5.40
2019-03-10T06:01:00.916Z,5.40
2019-03-10T06:06:17.260Z,5.30
2019-03-10T06:11:27.020Z,5.30
2019-03-10T06:16:36.049Z,5.20
2019-03-10T06:21:44.243Z,5.30
2019-03-10T06:38:46.818Z,5.40
2019-03-10T06:55:46.624Z,5.60
2019-03-10T07:00:56.319Z,5.60
2019-03-10T07:06:04.822Z,5.60
2019-03-10T07:11:27.707Z,5.70
2019-03-10T07:27:54.338Z,5.90
2019-03-10T07:39:06.774Z,6.00
2019-03-10T07:44:19.108Z,5.70
2019-03-10T08:32:51.255Z,5.20
2019-03-10T09:22:00.442Z,5.20
2019-03-10T09:27:28.395Z,5.10
2019-03-10T09:33:13.099Z,5.20
2019-03-10T09:38:37.936Z,5.30
2019-03-10T09:43:55.420Z,5.40
2019-03-10T09:49:09.906Z,5.50
2019-03-10T09:54:20.976Z,5.60
2019-03-10T09:59:31.289Z,5.50
2019-03-10T10:04:45.985Z,5.60
2019-03-10T10:10:03.603Z,5.70
2019-03-10T10:15:13.728Z,5.60
2019-03-10T10:20:27.847Z,5.60
2019-03-10T10:25:45.991Z,5.70
2019-03-10T10:30:54.846Z,5.60
2019-03-10T10:36:19.526Z,5.60
2019-03-10T10:41:34.086Z,5.30
2019-03-10T10:46:45.019Z,5.10
2019-03-10T10:51:54.758Z,5.40
2019-03-10T10:57:03.288Z,5.40
2019-03-10T11:07:41.897Z,5.70
2019-03-10T11:13:12.237Z,5.80
2019-03-10T11:18:32.524Z,5.80
2019-03-10T11:23:41.085Z,5.90
2019-03-10T11:29:04.728Z,6.00
2019-03-10T11:34:31.579Z,6.10
2019-03-10T11:39:45.923Z,6.30
2019-03-10T11:45:03.431Z,6.40
2019-03-10T11:50:25.436Z,6.70
2019-03-10T11:55:34.005Z,7.00
2019-03-10T12:00:48.592Z,7.60
2019-03-10T12:05:59.764Z,7.80
2019-03-10T12:11:07.666Z,8.10
2019-03-10T12:16:14.396Z,8.20
2019-03-10T12:21:21.145Z,8.30
2019-03-10T12:26:28.212Z,8.60
2019-03-10T12:31:35.371Z,8.80
2019-03-10T12:36:42.543Z,9.00
2019-03-10T12:41:57.873Z,9.10
2019-03-10T12:46:58.347Z,9.20
2019-03-10T12:52:07.269Z,9.30
2019-03-10T12:57:14.335Z,9.30
2019-03-10T13:02:21.624Z,9.60
2019-03-10T13:07:28.350Z,10.40
2019-03-10T13:12:35.564Z,11.10
2019-03-10T13:17:43.341Z,11.40
2019-03-10T13:22:49.516Z,11.40
2019-03-10T13:27:56.753Z,11.60
2019-03-10T13:33:03.676Z,11.30
2019-03-10T13:38:10.896Z,11.40
2019-03-10T13:43:17.887Z,11.40
2019-03-10T13:48:24.807Z,11.40
2019-03-10T13:53:32.044Z,11.30
2019-03-10T13:58:39.199Z,11.20
2019-03-10T14:03:45.423Z,11.40
2019-03-10T14:08:53.462Z,11.40
2019-03-10T14:13:59.965Z,11.50
2019-03-10T14:19:06.632Z,11.20
2019-03-10T14:24:13.276Z,11.00
2019-03-10T14:29:20.346Z,10.70
2019-03-10T14:34:27.495Z,10.60
2019-03-10T14:39:34.634Z,10.50
2019-03-10T14:44:42.411Z,10.50
2019-03-10T14:49:48.861Z,10.40
2019-03-10T14:54:56.164Z,9.60
2019-03-10T15:00:05.842Z,8.70
2019-03-10T15:05:13.088Z,7.50
2019-03-10T15:10:20.445Z,7.50
2019-03-10T15:15:28.022Z,7.80
2019-03-10T15:20:35.764Z,8.00
2019-03-10T15:25:42.717Z,8.00
2019-03-10T15:30:50.460Z,8.20
2019-03-10T15:35:57.694Z,8.20
2019-03-10T15:41:06.130Z,8.30
2019-03-10T15:46:13.236Z,8.20
2019-03-10T15:51:21.270Z,8.20
2019-03-10T15:56:28.193Z,8.30
2019-03-10T16:01:35.066Z,8.40
2019-03-10T16:06:42.277Z,8.40
2019-03-10T16:11:48.247Z,8.60
2019-03-10T16:16:56.360Z,8.90
2019-03-10T16:22:03.546Z,9.20
2019-03-10T16:27:12.481Z,9.50
2019-03-10T16:32:37.940Z,9.40
2019-03-10T16:37:44.477Z,9.40
2019-03-10T16:42:50.657Z,8.90
2019-03-10T16:47:58.010Z,8.70
2019-03-10T16:53:05.209Z,8.60
2019-03-10T16:58:12.385Z,8.60
2019-03-10T17:03:19.620Z,8.60
2019-03-10T17:08:26.946Z,8.70
2019-03-10T17:13:34.445Z,8.70
2019-03-10T17:18:41.340Z,8.70
2019-03-10T17:23:47.438Z,8.70
2019-03-10T17:28:55.248Z,8.70
2019-03-10T17:34:03.236Z,8.70
2019-03-10T17:39:11.598Z,8.60
2019-03-10T17:44:18.717Z,8.80
2019-03-10T17:49:25.896Z,8.90
2019-03-10T17:54:32.447Z,8.90
2019-03-10T17:59:39.679Z,8.80
2019-03-10T18:04:45.540Z,8.70
2019-03-10T18:09:51.491Z,8.70
2019-03-10T18:15:08.540Z,8.60
2019-03-10T18:20:18.279Z,8.60
2019-03-10T18:25:25.196Z,8.50
2019-03-10T18:30:33.554Z,8.40
2019-03-10T18:35:40.814Z,8.20
2019-03-10T18:40:46.814Z,8.20
2019-03-10T18:45:55.446Z,8.10
2019-03-10T18:51:02.391Z,8.00
2019-03-10T18:56:10.095Z,7.80
2019-03-10T19:01:17.197Z,7.70
2019-03-10T19:06:24.048Z,7.70
2019-03-10T19:11:30.830Z,7.50
2019-03-10T19:16:38.512Z,7.50
2019-03-10T19:21:45.753Z,7.40
2019-03-10T19:26:52.970Z,7.40
2019-03-10T19:31:59.028Z,7.40
2019-03-10T19:37:06.440Z,7.40
2019-03-10T19:42:14.332Z,7.30
2019-03-10T19:47:21.262Z,7.40
2019-03-10T19:52:28.021Z,7.40
2019-03-10T19:57:36.309Z,7.30
2019-03-10T20:02:43.471Z,7.40
2019-03-10T20:07:49.419Z,7.30
2019-03-10T20:12:56.146Z,7.10
2019-03-10T20:18:03.124Z,7.10
2019-03-10T20:23:10.988Z,7.10
2019-03-10T20:28:17.617Z,6.40
2019-03-10T20:33:25.067Z,5.30
2019-03-10T20:38:31.586Z,4.50
2019-03-10T20:43:37.543Z,4.10
2019-03-10T20:48:45.844Z,3.70
2019-03-10T20:53:53.607Z,3.40
2019-03-10T20:59:02.281Z,3.20
2019-03-10T21:04:10.886Z,3.00
2019-03-10T21:09:17.850Z,2.80
2019-03-10T21:14:25.112Z,2.70
2019-03-10T21:19:32.039Z,2.50
2019-03-10T21:24:39.056Z,2.50
2019-03-10T21:29:44.962Z,2.30
2019-03-10T21:34:50.899Z,2.20
2019-03-10T21:39:56.978Z,2.00
2019-03-10T21:45:04.232Z,2.00
2019-03-10T21:50:24.961Z,1.90
2019-03-10T21:55:33.668Z,1.80
2019-03-10T22:00:40.722Z,1.70
2019-03-10T22:05:46.596Z,1.90
2019-03-10T22:10:53.473Z,1.80
2019-03-10T22:16:00.520Z,1.80
2019-03-10T22:21:27.944Z,1.80
2019-03-10T22:26:35.888Z,1.90
2019-03-10T22:31:58.762Z,1.80
2019-03-10T22:37:08.386Z,1.80
2019-03-10T22:42:15.229Z,1.80
2019-03-10T22:47:21.881Z,1.70
2019-03-10T22:52:28.562Z,1.70
2019-03-10T22:57:35.281Z,1.70
2019-03-10T23:08:01.239Z,1.70
2019-03-10T23:13:27.946Z,1.80
2019-03-10T23:18:36.370Z,1.80
2019-03-10T23:23:46.082Z,1.70
2019-03-10T23:28:52.186Z,1.70
2019-03-10T23:33:59.033Z,1.70
2019-03-10T23:39:07.393Z,1.70
2019-03-10T23:44:15.956Z,1.70
2019-03-10T23:49:38.936Z,1.60
2019-03-10T23:54:44.861Z,1.50
2019-03-10T23:59:50.854Z,1.60
